createdAt,value
2023-04-20T00:01:15.051Z,6.73
2023-04-20T00:03:42.218Z,8.67
2023-04-20T00:06:09.271Z,2.63
2023-04-20T00:08:36.167Z,3.40
2023-04-20T00:11:02.993Z,3.13
2023-04-20T00:13:29.884Z,3.67
2023-04-20T00:15:56.637Z,6.43
2023-04-20T00:18:29.470Z,3.77
2023-04-20T00:20:57.366Z,4.30
2023-04-20T00:23:24.228Z,4.37
2023-04-20T00:25:52.200Z,4.47
2023-04-20T00:28:19.036Z,4.40
2023-04-20T00:30:46.132Z,5.03
2023-04-20T00:33:12.933Z,4.70
2023-04-20T00:35:39.728Z,3.37
2023-04-20T00:38:13.534Z,4.93
2023-04-20T00:40:43.129Z,6.80
2023-04-20T00:43:14.510Z,5.00
2023-04-20T00:45:41.429Z,5.37
2023-04-20T00:48:08.187Z,7.50
2023-04-20T00:50:35.966Z,8.67
2023-04-20T00:53:03.596Z,5.13
2023-04-20T00:55:31.178Z,3.83
2023-04-20T00:57:58.433Z,7.17
2023-04-20T01:00:26.479Z,5.47
2023-04-20T01:02:53.396Z,3.67
2023-04-20T01:05:21.238Z,4.40
2023-04-20T01:07:47.972Z,5.27
2023-04-20T01:10:14.978Z,8.07
2023-04-20T01:12:42.158Z,4.93
2023-04-20T01:15:09.776Z,4.83
2023-04-20T01:17:40.167Z,8.67
2023-04-20T01:20:09.245Z,4.67
2023-04-20T01:22:51.030Z,5.37
2023-04-20T01:25:18.414Z,4.23
2023-04-20T01:27:45.565Z,6.23
2023-04-20T01:30:15.875Z,5.63
2023-04-20T01:32:42.865Z,4.10
2023-04-20T01:35:12.457Z,3.83
2023-04-20T01:37:40.768Z,5.97
2023-04-20T01:40:11.745Z,6.03
2023-04-20T01:42:41.747Z,3.10
2023-04-20T01:45:17.544Z,4.10
2023-04-20T01:47:44.526Z,3.60
2023-04-20T01:50:14.764Z,3.90
2023-04-20T01:52:41.697Z,3.13
2023-04-20T01:55:08.980Z,5.30
2023-04-20T01:57:36.266Z,3.23
2023-04-20T02:00:04.254Z,3.67
2023-04-20T02:02:31.154Z,6.47
2023-04-20T02:04:58.356Z,5.10
2023-04-20T02:07:25.421Z,3.83
2023-04-20T02:09:52.200Z,4.93
2023-04-20T02:12:19.218Z,5.20
2023-04-20T02:14:46.136Z,10.30
2023-04-20T02:17:14.010Z,6.37
2023-04-20T02:19:41.084Z,6.03
2023-04-20T02:22:07.869Z,4.87
2023-04-20T02:24:35.034Z,7.50
2023-04-20T02:27:02.531Z,6.33
2023-04-20T02:29:29.333Z,3.83
2023-04-20T02:31:56.271Z,5.13
2023-04-20T02:34:23.060Z,5.00
2023-04-20T02:36:52.817Z,3.80
2023-04-20T02:39:21.903Z,5.47
2023-04-20T02:41:48.585Z,4.70
2023-04-20T02:44:15.398Z,5.57
2023-04-20T02:46:42.234Z,4.83
2023-04-20T02:49:11.756Z,4.10
2023-04-20T02:51:38.584Z,5.27
2023-04-20T02:54:05.710Z,5.53
2023-04-20T02:56:32.489Z,5.53
2023-04-20T02:58:59.383Z,6.03
2023-04-20T03:01:26.456Z,7.10
2023-04-20T03:03:53.411Z,6.20
2023-04-20T03:06:20.514Z,6.57
2023-04-20T03:08:47.492Z,4.83
2023-04-20T03:11:16.388Z,7.50
2023-04-20T03:13:43.141Z,4.83
2023-04-20T03:16:13.904Z,4.67
2023-04-20T03:18:40.687Z,4.20
2023-04-20T03:21:07.528Z,5.07
2023-04-20T03:23:37.358Z,5.40
2023-04-20T03:26:04.404Z,4.40
2023-04-20T03:28:31.199Z,5.17
2023-04-20T03:30:58.283Z,5.47
2023-04-20T03:33:25.123Z,4.47
2023-04-20T03:35:51.787Z,6.40
2023-04-20T03:38:18.632Z,5.77
2023-04-20T03:40:46.070Z,4.33
2023-04-20T03:43:16.124Z,5.00
2023-04-20T03:45:45.708Z,5.83
2023-04-20T03:48:12.628Z,5.93
2023-04-20T03:50:39.383Z,8.73
2023-04-20T03:53:06.618Z,7.13
2023-04-20T03:55:36.411Z,6.00
2023-04-20T03:58:06.467Z,6.03
2023-04-20T04:00:34.788Z,4.63
2023-04-20T04:03:01.773Z,5.63
2023-04-20T04:05:28.900Z,10.87
2023-04-20T04:07:55.867Z,6.77
2023-04-20T04:10:22.695Z,4.73
2023-04-20T04:12:51.392Z,5.77
2023-04-20T04:15:19.531Z,5.83
2023-04-20T04:17:46.545Z,6.87
2023-04-20T04:20:13.659Z,5.07
2023-04-20T04:22:43.553Z,5.30
2023-04-20T04:25:11.466Z,5.27
2023-04-20T04:27:39.941Z,7.37
2023-04-20T04:30:09.449Z,4.17
2023-04-20T04:32:36.323Z,5.43
2023-04-20T04:35:03.593Z,5.77
2023-04-20T04:37:30.552Z,6.83
2023-04-20T04:39:58.248Z,5.30
2023-04-20T04:42:25.119Z,7.10
2023-04-20T04:44:53.690Z,4.03
2023-04-20T04:47:22.146Z,7.60
2023-04-20T04:49:49.866Z,5.83
2023-04-20T04:52:16.657Z,7.60
2023-04-20T04:54:45.253Z,3.80
2023-04-20T04:57:12.056Z,5.87
2023-04-20T04:59:39.211Z,4.17
2023-04-20T05:02:06.019Z,6.27
2023-04-20T05:04:33.016Z,7.27
2023-04-20T05:06:59.946Z,9.43
2023-04-20T05:09:33.494Z,5.77
2023-04-20T05:12:01.099Z,4.77
2023-04-20T05:14:27.904Z,7.70
2023-04-20T05:16:54.888Z,4.00
2023-04-20T05:19:21.634Z,5.73
2023-04-20T05:21:50.980Z,6.67
2023-04-20T05:24:19.389Z,3.80
2023-04-20T05:26:46.757Z,5.63
2023-04-20T05:29:15.639Z,5.73
2023-04-20T05:31:42.594Z,7.57
2023-04-20T05:34:09.416Z,6.57
2023-04-20T05:36:36.381Z,5.50
2023-04-20T05:39:03.512Z,5.07
2023-04-20T05:41:30.497Z,4.93
2023-04-20T05:44:00.207Z,5.40
2023-04-20T05:46:27.656Z,9.73
2023-04-20T05:48:54.631Z,5.63
2023-04-20T05:51:22.481Z,9.17
2023-04-20T05:53:49.224Z,5.97
2023-04-20T05:56:16.118Z,4.17
2023-04-20T05:58:43.367Z,5.77
2023-04-20T06:01:10.121Z,8.70
2023-04-20T06:03:39.957Z,5.03
2023-04-20T06:06:07.223Z,5.80
2023-04-20T06:08:34.017Z,3.63
2023-04-20T06:11:00.933Z,8.23
2023-04-20T06:13:27.714Z,5.20
2023-04-20T06:15:54.882Z,5.20
2023-04-20T06:18:21.690Z,4.57
2023-04-20T06:20:48.608Z,5.57
2023-04-20T06:23:15.700Z,6.47
2023-04-20T06:25:42.793Z,5.07
2023-04-20T06:28:09.514Z,4.17
2023-04-20T06:30:36.356Z,7.00
2023-04-20T06:33:03.572Z,8.80
2023-04-20T06:35:30.562Z,7.43
2023-04-20T06:37:57.682Z,8.10
2023-04-20T06:40:28.157Z,5.03
2023-04-20T06:42:55.084Z,6.23
2023-04-20T06:45:21.841Z,6.40
2023-04-20T06:47:48.877Z,8.40
2023-04-20T06:50:15.934Z,6.73
2023-04-20T06:52:42.856Z,5.67
2023-04-20T06:55:10.171Z,6.27
2023-04-20T06:57:40.273Z,3.97
2023-04-20T07:00:09.703Z,5.00
2023-04-20T07:02:48.148Z,5.40
2023-04-20T07:05:15.860Z,7.13
2023-04-20T07:07:43.133Z,6.47
2023-04-20T07:10:11.770Z,7.93
2023-04-20T07:12:42.192Z,5.30
2023-04-20T07:15:10.132Z,6.90
2023-04-20T07:17:36.929Z,6.50
2023-04-20T07:20:13.493Z,5.50
2023-04-20T07:22:40.552Z,4.63
2023-04-20T07:25:09.169Z,6.57
2023-04-20T07:27:40.718Z,4.20
2023-04-20T07:30:11.295Z,8.10
2023-04-20T07:32:39.413Z,5.87
2023-04-20T07:35:06.635Z,8.47
2023-04-20T07:37:34.440Z,8.90
2023-04-20T07:40:02.100Z,8.13
2023-04-20T07:42:29.886Z,8.70
2023-04-20T07:44:56.747Z,8.60
2023-04-20T07:47:23.584Z,6.57
2023-04-20T07:49:50.311Z,6.37
2023-04-20T07:52:18.347Z,7.73
2023-04-20T07:54:45.728Z,6.60
2023-04-20T07:57:15.394Z,5.40
2023-04-20T07:59:42.267Z,6.93
2023-04-20T08:02:09.508Z,5.57
2023-04-20T08:04:38.324Z,5.87
2023-04-20T08:07:08.087Z,6.27
2023-04-20T08:09:34.870Z,4.40
2023-04-20T08:12:02.000Z,7.50
2023-04-20T08:14:28.825Z,7.40
2023-04-20T08:16:55.637Z,7.80
2023-04-20T08:19:22.427Z,8.20
2023-04-20T08:21:51.228Z,5.77
2023-04-20T08:24:18.239Z,4.77
2023-04-20T08:26:45.754Z,5.53
2023-04-20T08:29:12.562Z,5.57
2023-04-20T08:31:42.010Z,5.30
2023-04-20T08:34:08.908Z,5.27
2023-04-20T08:36:36.214Z,4.67
2023-04-20T08:39:13.412Z,6.57
2023-04-20T08:41:40.346Z,6.00
2023-04-20T08:44:08.198Z,6.27
2023-04-20T08:46:35.573Z,7.00
2023-04-20T08:49:05.493Z,6.67
2023-04-20T08:51:32.585Z,7.27
2023-04-20T08:54:06.681Z,7.40
2023-04-20T08:56:36.746Z,6.90
2023-04-20T08:59:05.740Z,5.63
2023-04-20T09:01:36.219Z,6.17
2023-04-20T09:04:14.864Z,6.37
2023-04-20T09:06:47.757Z,7.93
2023-04-20T09:09:14.722Z,5.07
2023-04-20T09:11:41.777Z,5.83
2023-04-20T09:14:10.308Z,8.73
2023-04-20T09:16:39.477Z,8.23
2023-04-20T09:19:09.885Z,7.03
2023-04-20T09:21:37.404Z,6.03
2023-04-20T09:24:08.884Z,10.27
2023-04-20T09:26:36.602Z,7.03
2023-04-20T09:29:04.511Z,6.60
2023-04-20T09:31:31.336Z,6.03
2023-04-20T09:34:02.706Z,6.77
2023-04-20T09:36:41.059Z,6.23
2023-04-20T09:39:10.598Z,7.23
2023-04-20T09:41:39.437Z,4.73
2023-04-20T09:44:06.991Z,5.13
2023-04-20T09:46:36.009Z,6.03
2023-04-20T09:49:07.974Z,5.40
2023-04-20T09:51:41.702Z,5.53
2023-04-20T09:54:10.489Z,5.70
2023-04-20T09:56:38.164Z,5.17
2023-04-20T09:59:05.028Z,7.33
2023-04-20T10:01:34.849Z,4.80
2023-04-20T10:04:04.008Z,5.97
2023-04-20T10:06:35.841Z,5.43
2023-04-20T10:09:05.535Z,6.50
2023-04-20T10:11:49.793Z,7.10
2023-04-20T10:14:24.509Z,6.83
2023-04-20T10:17:06.578Z,6.80
2023-04-20T10:19:44.754Z,6.03
2023-04-20T10:22:14.126Z,7.50
2023-04-20T10:24:40.919Z,6.93
2023-04-20T10:27:21.814Z,5.80
2023-04-20T10:29:48.813Z,7.67
2023-04-20T10:32:29.484Z,5.60
2023-04-20T10:35:11.629Z,5.17
2023-04-20T10:37:51.731Z,7.70
2023-04-20T10:40:29.034Z,5.97
2023-04-20T10:42:55.936Z,4.60
2023-04-20T10:45:37.162Z,6.23
2023-04-20T10:48:09.001Z,5.97
2023-04-20T10:50:36.224Z,6.97
2023-04-20T10:53:04.638Z,5.43
2023-04-20T10:55:32.049Z,3.97
2023-04-20T10:57:58.828Z,6.70
2023-04-20T11:00:29.574Z,5.60
2023-04-20T11:03:00.016Z,5.27
2023-04-20T11:05:27.919Z,4.30
2023-04-20T11:07:59.668Z,5.93
2023-04-20T11:10:49.663Z,6.43
2023-04-20T11:13:22.662Z,7.33
2023-04-20T11:15:49.592Z,4.67
2023-04-20T11:18:16.651Z,7.23
2023-04-20T11:20:53.996Z,6.60
2023-04-20T11:23:22.514Z,6.40
2023-04-20T11:26:09.727Z,5.23
2023-04-20T11:28:36.721Z,4.77
2023-04-20T11:31:04.060Z,9.03
2023-04-20T11:33:33.739Z,5.90
2023-04-20T11:36:02.221Z,6.73
2023-04-20T11:38:30.063Z,4.33
2023-04-20T11:40:57.537Z,7.87
2023-04-20T11:43:24.397Z,5.57
2023-04-20T11:45:51.151Z,4.27
2023-04-20T11:48:18.901Z,5.10
2023-04-20T11:50:46.115Z,7.10
2023-04-20T11:53:14.794Z,6.00
2023-04-20T11:55:42.107Z,6.00
2023-04-20T11:58:11.647Z,5.13
2023-04-20T12:00:38.459Z,5.23
2023-04-20T12:03:05.368Z,8.23
2023-04-20T12:05:35.607Z,4.10
2023-04-20T12:08:02.553Z,6.30
2023-04-20T12:10:29.460Z,4.67
2023-04-20T12:12:56.888Z,15.77
2023-04-20T12:15:26.585Z,5.30
2023-04-20T12:17:53.596Z,4.97
2023-04-20T12:20:20.553Z,5.30
2023-04-20T12:22:47.261Z,5.37
2023-04-20T12:25:14.194Z,8.77
2023-04-20T12:27:43.771Z,5.70
2023-04-20T12:30:11.053Z,5.83
2023-04-20T12:32:37.805Z,6.77
2023-04-20T12:35:04.840Z,6.47
2023-04-20T12:37:32.136Z,6.27
2023-04-20T12:39:58.964Z,5.47
2023-04-20T12:42:25.653Z,7.43
2023-04-20T12:44:56.204Z,5.37
2023-04-20T12:47:23.204Z,5.53
2023-04-20T12:49:52.072Z,6.20
2023-04-20T12:52:18.819Z,5.07
2023-04-20T12:54:46.301Z,8.57
2023-04-20T12:57:13.211Z,6.07
2023-04-20T12:59:39.990Z,7.57
2023-04-20T13:02:06.719Z,7.80
2023-04-20T13:04:33.568Z,5.33
2023-04-20T13:07:00.376Z,7.07
2023-04-20T13:09:27.316Z,5.57
2023-04-20T13:11:54.278Z,7.83
2023-04-20T13:14:21.361Z,6.23
2023-04-20T13:16:48.538Z,6.87
2023-04-20T13:19:15.679Z,8.20
2023-04-20T13:21:42.601Z,6.87
2023-04-20T13:24:09.849Z,6.20
2023-04-20T13:26:37.450Z,6.83
2023-04-20T13:29:04.295Z,10.00
2023-04-20T13:31:32.420Z,7.10
2023-04-20T13:33:59.217Z,6.90
2023-04-20T13:36:26.259Z,6.27
2023-04-20T13:38:56.467Z,7.57
2023-04-20T13:41:26.444Z,5.67
2023-04-20T13:43:53.293Z,8.73
2023-04-20T13:46:26.043Z,7.30
2023-04-20T13:48:52.839Z,5.93
2023-04-20T13:51:20.079Z,8.07
2023-04-20T13:53:49.616Z,7.10
2023-04-20T13:56:16.897Z,6.43
2023-04-20T13:58:43.970Z,7.73
2023-04-20T14:01:18.106Z,6.37
2023-04-20T14:03:45.034Z,8.00
2023-04-20T14:06:12.079Z,6.90
2023-04-20T14:08:38.808Z,6.17
2023-04-20T14:11:05.912Z,6.70
2023-04-20T14:13:32.672Z,6.97
2023-04-20T14:15:59.552Z,6.17
2023-04-20T14:18:26.283Z,5.80
2023-04-20T14:20:53.309Z,7.03
2023-04-20T14:23:20.044Z,8.47
2023-04-20T14:25:46.905Z,7.77
2023-04-20T14:28:17.696Z,7.23
2023-04-20T14:30:45.948Z,9.63
2023-04-20T14:33:12.886Z,7.20
2023-04-20T14:35:39.790Z,11.33
2023-04-20T14:38:06.642Z,8.50
2023-04-20T14:40:33.496Z,6.73
2023-04-20T14:43:00.729Z,8.50
2023-04-20T14:45:27.569Z,9.97
2023-04-20T14:47:55.450Z,6.00
2023-04-20T14:50:29.735Z,5.83
2023-04-20T14:52:56.417Z,6.83
2023-04-20T14:55:25.874Z,6.10
2023-04-20T14:57:57.064Z,6.73
2023-04-20T15:00:25.423Z,7.27
2023-04-20T15:02:53.277Z,5.70
2023-04-20T15:05:20.451Z,6.10
2023-04-20T15:07:50.658Z,6.27
2023-04-20T15:10:18.692Z,7.63
2023-04-20T15:12:46.049Z,6.63
2023-04-20T15:15:15.555Z,6.30
2023-04-20T15:17:42.385Z,6.30
2023-04-20T15:20:09.854Z,7.43
2023-04-20T15:22:37.454Z,5.40
2023-04-20T15:25:04.829Z,5.87
2023-04-20T15:27:31.742Z,7.00
2023-04-20T15:29:58.525Z,7.40
2023-04-20T15:32:26.453Z,7.17
2023-04-20T15:34:53.396Z,9.83
2023-04-20T15:37:20.129Z,7.30
2023-04-20T15:39:46.895Z,9.70
2023-04-20T15:42:16.865Z,7.87
2023-04-20T15:44:43.595Z,7.63
2023-04-20T15:47:10.771Z,8.50
2023-04-20T15:49:40.753Z,8.07
2023-04-20T15:52:11.211Z,9.20
2023-04-20T15:54:38.267Z,7.77
2023-04-20T15:57:05.343Z,6.97
2023-04-20T15:59:32.494Z,8.47
2023-04-20T16:01:59.351Z,9.57
2023-04-20T16:04:26.281Z,8.63
2023-04-20T16:06:53.156Z,7.03
2023-04-20T16:09:20.803Z,9.53
2023-04-20T16:11:49.098Z,8.70
2023-04-20T16:14:16.022Z,7.00
2023-04-20T16:16:42.827Z,10.30
2023-04-20T16:19:14.593Z,7.57
2023-04-20T16:21:41.550Z,7.63
2023-04-20T16:24:08.501Z,9.40
2023-04-20T16:26:35.433Z,6.70
2023-04-20T16:29:05.032Z,7.43
2023-04-20T16:31:31.847Z,13.23
2023-04-20T16:34:00.823Z,10.53
2023-04-20T16:36:27.714Z,8.03
2023-04-20T16:38:54.622Z,9.03
2023-04-20T16:41:21.913Z,7.73
2023-04-20T16:43:48.684Z,8.50
2023-04-20T16:46:16.461Z,12.20
2023-04-20T16:48:44.178Z,7.97
2023-04-20T16:51:10.932Z,6.97
2023-04-20T16:53:37.623Z,7.47
2023-04-20T16:56:04.697Z,7.33
2023-04-20T16:58:31.565Z,10.97
2023-04-20T17:00:58.415Z,7.23
2023-04-20T17:03:25.420Z,7.53
2023-04-20T17:05:52.214Z,8.87
2023-04-20T17:08:19.036Z,8.50
2023-04-20T17:10:46.495Z,7.97
2023-04-20T17:13:13.512Z,7.17
2023-04-20T17:15:42.625Z,9.07
2023-04-20T17:18:09.336Z,7.47
2023-04-20T17:20:36.396Z,8.50
2023-04-20T17:23:03.212Z,7.30
2023-04-20T17:25:29.969Z,7.37
2023-04-20T17:27:56.739Z,6.87
2023-04-20T17:30:23.516Z,6.60
2023-04-20T17:32:50.242Z,6.57
2023-04-20T17:35:17.032Z,8.17
2023-04-20T17:37:44.103Z,6.87
2023-04-20T17:40:11.352Z,6.63
2023-04-20T17:42:38.295Z,6.40
2023-04-20T17:45:08.472Z,8.30
2023-04-20T17:47:35.345Z,8.27
2023-04-20T17:50:02.242Z,8.27
2023-04-20T17:52:31.914Z,6.33
2023-04-20T17:55:00.284Z,6.63
2023-04-20T17:57:27.116Z,9.80
2023-04-20T17:59:56.824Z,7.40
2023-04-20T18:02:25.240Z,7.50
2023-04-20T18:04:52.511Z,7.20
2023-04-20T18:07:22.325Z,8.17
2023-04-20T18:09:49.129Z,7.63
2023-04-20T18:12:15.850Z,7.20
2023-04-20T18:14:42.632Z,8.27
2023-04-20T18:17:09.487Z,9.37
2023-04-20T18:19:38.571Z,8.80
2023-04-20T18:22:05.488Z,8.67
2023-04-20T18:24:32.211Z,7.80
2023-04-20T18:26:59.167Z,8.07
2023-04-20T18:29:26.239Z,9.47
2023-04-20T18:31:55.033Z,11.87
2023-04-20T18:34:22.163Z,7.00
2023-04-20T18:36:49.020Z,7.47
2023-04-20T18:39:16.203Z,6.63
2023-04-20T18:41:42.917Z,7.00
2023-04-20T18:44:09.641Z,7.93
2023-04-20T18:46:37.100Z,9.00
2023-04-20T18:49:04.512Z,8.27
2023-04-20T18:51:32.434Z,11.30
2023-04-20T18:53:59.214Z,9.47
2023-04-20T18:56:27.186Z,8.67
2023-04-20T18:58:57.689Z,8.60
2023-04-20T19:01:36.808Z,9.07
2023-04-20T19:04:04.274Z,8.00
2023-04-20T19:06:31.394Z,10.40
2023-04-20T19:09:07.286Z,9.90
2023-04-20T19:11:36.196Z,8.90
2023-04-20T19:14:03.170Z,9.77
2023-04-20T19:16:31.453Z,9.67
2023-04-20T19:18:58.653Z,9.53
2023-04-20T19:21:27.058Z,9.77
2023-04-20T19:23:53.848Z,10.53
2023-04-20T19:26:25.810Z,11.27
2023-04-20T19:28:53.460Z,10.00
2023-04-20T19:31:21.314Z,9.33
2023-04-20T19:33:48.139Z,8.87
2023-04-20T19:36:19.164Z,9.30
2023-04-20T19:38:55.875Z,10.10
2023-04-20T19:41:22.906Z,9.53
2023-04-20T19:43:49.662Z,7.30
2023-04-20T19:46:17.547Z,8.00
2023-04-20T19:48:44.938Z,8.10
2023-04-20T19:51:11.816Z,6.37
2023-04-20T19:53:38.583Z,7.67
2023-04-20T19:56:06.517Z,10.00
2023-04-20T19:58:33.540Z,9.63
2023-04-20T20:01:00.329Z,10.37
2023-04-20T20:03:27.653Z,7.40
2023-04-20T20:05:54.595Z,9.23
2023-04-20T20:08:29.149Z,6.63
2023-04-20T20:10:55.952Z,8.80
2023-04-20T20:13:22.719Z,8.37
2023-04-20T20:15:49.601Z,10.27
2023-04-20T20:18:16.602Z,8.80
2023-04-20T20:20:43.492Z,7.57
2023-04-20T20:23:10.356Z,7.33
2023-04-20T20:25:37.344Z,7.10
2023-04-20T20:28:04.299Z,7.33
2023-04-20T20:30:32.109Z,7.00
2023-04-20T20:32:59.070Z,8.03
2023-04-20T20:35:31.776Z,8.63
2023-04-20T20:37:59.316Z,6.87
2023-04-20T20:40:26.552Z,6.80
2023-04-20T20:42:56.832Z,7.27
2023-04-20T20:45:23.837Z,10.50
2023-04-20T20:47:50.678Z,8.90
2023-04-20T20:50:19.785Z,8.37
2023-04-20T20:52:46.605Z,8.97
2023-04-20T20:55:13.600Z,8.57
2023-04-20T20:57:40.393Z,9.70
2023-04-20T21:00:10.071Z,9.93
2023-04-20T21:02:37.815Z,9.50
2023-04-20T21:05:05.440Z,8.73
2023-04-20T21:07:32.257Z,9.43
2023-04-20T21:09:58.970Z,10.93
2023-04-20T21:12:25.950Z,9.00
2023-04-20T21:15:03.614Z,10.33
2023-04-20T21:17:31.288Z,10.03
2023-04-20T21:19:58.086Z,8.77
2023-04-20T21:22:24.834Z,11.00
2023-04-20T21:24:54.376Z,9.80
2023-04-20T21:27:21.122Z,11.07
2023-04-20T21:29:47.822Z,12.17
2023-04-20T21:32:14.722Z,9.63
2023-04-20T21:34:44.770Z,13.83
2023-04-20T21:37:11.581Z,11.63
2023-04-20T21:39:38.366Z,11.87
2023-04-20T21:42:05.415Z,10.53
2023-04-20T21:44:32.224Z,13.10
2023-04-20T21:46:59.257Z,10.97
2023-04-20T21:49:26.113Z,11.63
2023-04-20T21:51:52.900Z,11.63
2023-04-20T21:54:19.697Z,12.57
2023-04-20T21:56:47.061Z,12.23
2023-04-20T21:59:14.469Z,13.37
2023-04-20T22:01:41.356Z,11.87
2023-04-20T22:04:09.621Z,11.80
2023-04-20T22:06:36.563Z,14.50
2023-04-20T22:09:04.529Z,13.93
2023-04-20T22:11:31.389Z,12.43
2023-04-20T22:14:00.463Z,13.23
2023-04-20T22:16:28.559Z,18.33
2023-04-20T22:18:57.894Z,17.27
2023-04-20T22:21:24.670Z,14.97
2023-04-20T22:23:51.415Z,17.60
2023-04-20T22:26:18.142Z,16.70
2023-04-20T22:28:44.946Z,17.60
2023-04-20T22:31:11.885Z,19.70
2023-04-20T22:33:38.869Z,18.03
2023-04-20T22:36:08.485Z,19.17
2023-04-20T22:38:38.280Z,20.43
2023-04-20T22:41:05.202Z,22.17
2023-04-20T22:43:32.394Z,19.47
2023-04-20T22:45:59.245Z,19.67
2023-04-20T22:48:25.969Z,20.37
2023-04-20T22:50:53.421Z,17.93
2023-04-20T22:53:20.157Z,18.40
2023-04-20T22:55:46.878Z,24.30
2023-04-20T22:58:13.617Z,17.67
2023-04-20T23:00:40.868Z,19.87
2023-04-20T23:03:08.097Z,17.80
2023-04-20T23:05:35.482Z,18.87
2023-04-20T23:08:02.158Z,19.83
2023-04-20T23:10:29.537Z,19.00
2023-04-20T23:13:03.955Z,20.37
2023-04-20T23:15:30.997Z,19.10
2023-04-20T23:17:57.809Z,19.80
2023-04-20T23:20:24.813Z,19.07
2023-04-20T23:22:51.530Z,21.10
2023-04-20T23:25:18.297Z,19.30
2023-04-20T23:27:44.982Z,19.30
2023-04-20T23:30:15.177Z,18.63
2023-04-20T23:32:44.357Z,19.67
2023-04-20T23:35:11.416Z,20.00
2023-04-20T23:37:38.335Z,18.93
2023-04-20T23:40:07.217Z,20.57
2023-04-20T23:42:37.422Z,22.03
2023-04-20T23:45:05.826Z,23.63
2023-04-20T23:47:32.793Z,20.33
2023-04-20T23:49:59.602Z,21.60
2023-04-20T23:52:26.299Z,20.37
2023-04-20T23:54:53.224Z,21.23
2023-04-20T23:57:19.920Z,22.67
2023-04-20T23:59:46.703Z,22.27
